Terminal Aerodrome Forecast
Issued by NWS

Home | Current Version | Previous Version | Text Only | Print | Product List | Glossary On
Versions: 1 2 3 4 5 6 7 8 9 10 11 12 13 14 15 16 17 18
734
FTUS46 KSEW 292104 AAA
TAFSEA
TAF AMD
KSEA 292104Z 2921/3024 30010KT P6SM SKC
     FM300600 24006KT P6SM SCT040 SCT200
     FM301100 18007KT P6SM BKN015
     FM301600 20006KT P6SM SCT015 BKN040
     FM302000 22009KT P6SM SCT040 SCT250=

USA.gov is the U.S. government's official web portal to all federal, state and local government web resources and services.